Time;durP1;ratioP1;P1;durP2;ratioP2;P2;SDS_P1;SDS_P2;PMS_P1;PMS_P2;Temp;Humidity;BMP_temperature;BMP_pressure;BME280_temperature;BME280_humidity;BME280_pressure;Samples;Min_cycle;Max_cycle;Signal;HPM_P1;HPM_P2
2022/11/03 00:02:15;;;;;;;21.38;4.10;;;;;;;10.78;100.00;101286.41;5061020;28;20029;-71
2022/11/03 00:04:40;;;;;;;21.48;3.83;;;;;;;10.78;100.00;101281.13;5063584;28;20070;-71
2022/11/03 00:07:05;;;;;;;23.80;4.53;;;;;;;10.77;100.00;101287.28;5060142;28;20021;-71
2022/11/03 00:09:31;;;;;;;22.92;4.00;;;;;;;10.79;100.00;101274.06;5063175;28;20028;-71
2022/11/03 00:11:56;;;;;;;24.02;4.40;;;;;;;10.70;100.00;101271.34;5050604;28;20108;-71
2022/11/03 00:14:22;;;;;;;20.85;4.40;;;;;;;10.64;100.00;101264.22;5043810;28;20037;-71
2022/11/03 00:16:48;;;;;;;20.20;4.07;;;;;;;10.59;100.00;101271.22;5044428;28;20391;-71
2022/11/03 00:19:15;;;;;;;19.80;3.90;;;;;;;10.55;100.00;101259.72;5043025;28;20029;-71
2022/11/03 00:21:41;;;;;;;20.90;4.13;;;;;;;10.56;100.00;101265.91;5045563;28;20099;-71
2022/11/03 00:24:06;;;;;;;22.95;4.10;;;;;;;10.60;100.00;101265.06;5041960;28;20104;-71
2022/11/03 00:26:33;;;;;;;20.88;4.15;;;;;;;10.64;100.00;101261.56;5045237;28;20098;-67
2022/11/03 00:29:01;;;;;;;21.77;4.13;;;;;;;10.63;100.00;101252.78;5042546;28;20503;-66
2022/11/03 00:31:32;;;;;;;19.42;4.05;;;;;;;10.69;100.00;101256.34;5044359;28;20030;-66
2022/11/03 00:33:59;;;;;;;18.65;3.88;;;;;;;10.69;100.00;101262.53;5042977;28;20028;-66
2022/11/03 00:36:27;;;;;;;22.77;3.80;;;;;;;10.75;100.00;101236.13;5043999;28;20119;-66
2022/11/03 00:38:53;;;;;;;21.58;4.00;;;;;;;10.71;100.00;101236.97;5043286;28;20025;-66
2022/11/03 00:41:20;;;;;;;19.83;4.18;;;;;;;10.85;100.00;101237.13;5043060;28;20022;-67
2022/11/03 00:43:46;;;;;;;20.73;3.80;;;;;;;10.84;100.00;101234.47;5043697;28;20107;-66
2022/11/03 00:46:12;;;;;;;23.15;4.10;;;;;;;10.77;100.00;101234.38;5041324;28;20072;-66
2022/11/03 00:48:38;;;;;;;22.65;4.55;;;;;;;10.77;100.00;101218.53;5045244;28;20496;-66
2022/11/03 00:51:14;;;;;;;21.77;4.10;;;;;;;10.90;100.00;101221.28;5041796;28;20425;-66
2022/11/03 00:53:43;;;;;;;20.58;3.97;;;;;;;10.84;100.00;101218.59;5038170;28;20028;-66
2022/11/03 00:56:13;;;;;;;20.30;3.97;;;;;;;10.81;100.00;101215.03;5044875;28;20036;-66
2022/11/03 00:58:39;;;;;;;22.90;4.10;;;;;;;10.82;100.00;101205.38;5037908;28;20036;-67
2022/11/03 01:01:11;;;;;;;19.67;3.85;;;;;;;10.85;100.00;101212.41;5044860;28;20021;-66
2022/11/03 01:03:38;;;;;;;21.08;3.83;;;;;;;10.82;100.00;101208.00;5037507;28;20073;-65
2022/11/03 01:08:53;;;;;;;18.52;3.60;;;;;;;10.91;100.00;101193.97;5041532;28;20079;-66
2022/11/03 01:14:05;;;;;;;21.13;4.15;;;;;;;11.05;100.00;101194.06;5044991;28;20072;-66
2022/11/03 01:16:30;;;;;;;20.80;3.90;;;;;;;11.09;100.00;101188.81;5041956;28;20492;-67
2022/11/03 01:18:56;;;;;;;19.35;3.70;;;;;;;11.16;100.00;101182.69;5043405;28;20030;-66
2022/11/03 01:21:21;;;;;;;20.05;3.85;;;;;;;11.24;100.00;101192.44;5042987;28;20110;-65
2022/11/03 01:23:47;;;;;;;19.77;3.85;;;;;;;11.21;100.00;101193.31;5041856;28;20055;-67
2022/11/03 01:26:13;;;;;;;19.17;3.70;;;;;;;11.25;100.00;101175.72;5044110;28;20067;-67
2022/11/03 01:28:40;;;;;;;21.85;3.80;;;;;;;11.27;100.00;101187.19;5040965;28;20025;-67
2022/11/03 01:31:12;;;;;;;19.85;3.70;;;;;;;11.21;100.00;101177.44;5037202;28;20021;-66
2022/11/03 01:33:38;;;;;;;19.55;3.80;;;;;;;11.30;100.00;101158.09;5037172;28;20030;-65
2022/11/03 01:36:03;;;;;;;21.02;4.00;;;;;;;11.23;100.00;101153.66;5044137;28;20532;-66
2022/11/03 01:38:34;;;;;;;18.42;3.60;;;;;;;11.27;100.00;101166.91;5041758;28;20021;-67
2022/11/03 01:41:00;;;;;;;18.88;3.65;;;;;;;11.19;100.00;101165.97;5043634;28;20369;-67
2022/11/03 01:43:27;;;;;;;18.70;3.50;;;;;;;11.13;100.00;101153.56;5042313;28;20025;-72
2022/11/03 01:46:21;;;;;;;20.67;3.88;;;;;;;11.18;100.00;101150.06;5042851;28;20029;-71
2022/11/03 01:48:53;;;;;;;20.52;3.70;;;;;;;11.16;100.00;101137.72;5039120;28;20029;-71
2022/11/03 01:51:22;;;;;;;20.67;3.80;;;;;;;11.24;100.00;101135.16;5042907;28;20032;-71
2022/11/03 01:53:51;;;;;;;19.50;3.90;;;;;;;11.24;100.00;101137.78;5041995;28;20408;-71
2022/11/03 01:56:19;;;;;;;21.67;4.10;;;;;;;11.29;100.00;101137.81;5045238;28;20052;-69
2022/11/03 01:58:49;;;;;;;20.27;3.78;;;;;;;11.24;100.00;101134.22;5045579;28;20381;-71
2022/11/03 02:01:14;;;;;;;19.00;3.80;;;;;;;11.28;100.00;101133.38;5047669;28;20028;-71
2022/11/03 02:03:50;;;;;;;21.67;3.92;;;;;;;11.28;100.00;101134.25;5044597;28;20054;-71
2022/11/03 02:06:17;;;;;;;21.27;3.83;;;;;;;11.24;100.00;101135.16;5042496;28;20074;-70
2022/11/03 02:08:50;;;;;;;21.33;4.20;;;;;;;11.26;100.00;101132.50;5046740;28;20146;-71
2022/11/03 02:14:00;;;;;;;17.75;3.63;;;;;;;11.18;100.00;101120.97;5045229;28;20083;-71
2022/11/03 02:16:28;;;;;;;20.85;3.90;;;;;;;11.19;100.00;101120.97;5046728;28;20542;-71
2022/11/03 02:18:56;;;;;;;19.08;3.90;;;;;;;11.26;100.00;101106.91;5046190;28;20029;-70
2022/11/03 02:21:29;;;;;;;17.98;3.47;;;;;;;11.34;100.00;101113.16;5045779;28;20025;-71
2022/11/03 02:24:05;;;;;;;;;;;;;;;11.38;100.00;101100.78;5046508;28;20024;-71
2022/11/03 02:26:31;;;;;;;20.70;3.80;;;;;;;11.30;100.00;101098.13;5047109;28;19920;-71
2022/11/03 02:28:56;;;;;;;19.88;4.03;;;;;;;11.30;100.00;101095.47;5045437;28;20091;-71
2022/11/03 02:31:33;;;;;;;20.67;3.95;;;;;;;11.29;100.00;101095.47;5045677;28;20033;-68
2022/11/03 02:34:07;;;;;;;19.67;3.80;;;;;;;11.16;100.00;101090.09;5045373;28;20021;-71
2022/11/03 02:36:40;;;;;;;17.45;3.60;;;;;;;11.23;100.00;101077.78;5047245;28;20033;-71
2022/11/03 02:39:13;;;;;;;18.42;3.75;;;;;;;11.21;100.00;101062.78;5039201;28;20369;-70
2022/11/03 02:41:39;;;;;;;20.45;4.22;;;;;;;11.20;100.00;101068.94;5040490;28;20033;-71
2022/11/03 02:44:11;;;;;;;20.58;3.97;;;;;;;11.09;100.00;101071.53;5047429;28;20045;-71
2022/11/03 02:46:38;;;;;;;19.67;3.90;;;;;;;11.11;100.00;101060.09;5039871;28;20033;-71
2022/11/03 02:49:03;;;;;;;19.63;3.80;;;;;;;11.03;100.00;101053.84;5047016;28;20051;-71
2022/11/03 02:51:29;;;;;;;19.67;4.03;;;;;;;11.08;100.00;101054.78;5044896;28;20468;-70
2022/11/03 02:54:22;;;;;;;19.80;4.07;;;;;;;11.03;100.00;101058.28;5045496;28;20021;-71
2022/11/03 02:57:00;;;;;;;19.52;3.78;;;;;;;11.05;100.00;101036.22;5042775;28;20372;-71
2022/11/03 02:59:38;;;;;;;19.27;3.67;;;;;;;11.02;100.00;101056.50;5045066;28;20468;-71
2022/11/03 03:02:10;;;;;;;19.95;3.90;;;;;;;10.97;100.00;101045.91;5046700;28;20495;-71
2022/11/03 03:04:45;;;;;;;20.38;3.88;;;;;;;10.99;100.00;101041.50;5043370;28;20053;-71
2022/11/03 03:07:36;;;;;;;19.83;3.92;;;;;;;11.12;100.00;101027.44;5039250;28;20412;-71
2022/11/03 03:10:08;;;;;;;19.60;3.70;;;;;;;10.97;100.00;101025.59;5063395;28;20167;-69
2022/11/03 03:12:38;;;;;;;21.83;3.95;;;;;;;10.96;100.00;101018.53;5061610;28;20029;-71
2022/11/03 03:15:06;;;;;;;20.10;3.92;;;;;;;10.94;100.00;101004.44;5064218;28;20032;-70
2022/11/03 03:17:49;;;;;;;20.20;4.07;;;;;;;11.06;100.00;101024.78;5061697;28;20036;-70
2022/11/03 03:20:52;;;;;;;19.67;3.90;;;;;;;11.12;100.00;101016.00;5058573;28;20040;-71
2022/11/03 03:23:22;;;;;;;20.38;3.83;;;;;;;11.11;100.00;101015.13;5002531;28;20038;-71
2022/11/03 03:26:10;;;;;;;21.30;4.25;;;;;;;11.14;100.00;101007.19;5004002;28;20110;-70
2022/11/03 03:28:54;;;;;;;19.25;3.75;;;;;;;11.14;100.00;101004.53;4997090;28;20498;-70
2022/11/03 03:31:23;;;;;;;19.65;3.67;;;;;;;11.05;100.00;101007.13;5000344;28;20039;-69
2022/11/03 03:33:51;;;;;;;20.65;3.78;;;;;;;11.03;100.00;101003.59;5003642;28;20034;-71
2022/11/03 03:36:17;;;;;;;20.45;3.75;;;;;;;10.98;100.00;100998.28;5002193;28;20026;-71
2022/11/03 03:38:48;;;;;;;20.33;4.25;;;;;;;11.03;100.00;101002.72;5004431;28;20113;-71
2022/11/03 03:41:20;;;;;;;20.42;4.05;;;;;;;11.00;100.00;101000.94;5001408;28;20049;-71
2022/11/03 03:43:48;;;;;;;19.27;3.75;;;;;;;11.08;100.00;100991.28;5004158;28;20508;-71
2022/11/03 03:46:17;;;;;;;19.90;3.42;;;;;;;11.03;100.00;100987.72;4997788;28;20034;-69
2022/11/03 03:48:42;;;;;;;19.42;3.67;;;;;;;10.98;100.00;100973.63;4984811;28;20498;-71
2022/11/03 03:51:09;;;;;;;19.85;3.85;;;;;;;11.01;100.00;100975.38;4965389;28;20059;-69
2022/11/03 03:53:34;;;;;;;19.83;3.95;;;;;;;11.04;100.00;100970.09;4984835;28;20034;-71
2022/11/03 03:56:00;;;;;;;20.42;3.70;;;;;;;11.11;100.00;100964.84;4966238;28;20077;-72
2022/11/03 03:58:25;;;;;;;19.70;4.13;;;;;;;11.08;100.00;100963.94;4983455;28;20162;-69
2022/11/03 04:00:50;;;;;;;21.77;4.18;;;;;;;11.06;100.00;100960.41;5033416;28;20037;-71
2022/11/03 04:03:22;;;;;;;20.08;3.80;;;;;;;11.23;100.00;100968.41;5042731;28;20050;-71
2022/11/03 04:05:47;;;;;;;18.80;3.70;;;;;;;11.28;100.00;100956.06;5045277;28;20025;-69
2022/11/03 04:08:14;;;;;;;18.35;3.65;;;;;;;11.25;100.00;100961.34;5042693;28;20022;-71
2022/11/03 04:10:39;;;;;;;21.02;3.90;;;;;;;11.14;100.00;100972.78;5045521;28;20025;-71
2022/11/03 04:24:01;;;;;;;19.10;3.72;;;;;;;11.02;100.00;100963.91;5043276;28;20542;-71
2022/11/03 04:26:27;;;;;;;18.80;3.60;;;;;;;11.01;100.00;100951.56;5043748;28;20026;-71
2022/11/03 04:28:54;;;;;;;20.13;4.10;;;;;;;11.01;100.00;100939.22;5043900;28;20547;-70
2022/11/03 04:31:20;;;;;;;19.80;3.75;;;;;;;10.98;100.00;100941.88;5043329;28;20388;-69
2022/11/03 04:33:46;;;;;;;20.00;3.90;;;;;;;10.98;100.00;100937.44;5044834;28;20047;-71
2022/11/03 04:36:22;;;;;;;17.92;3.63;;;;;;;10.97;100.00;100925.09;5041749;28;20071;-70
2022/11/03 04:38:49;;;;;;;19.70;4.25;;;;;;;11.03;100.00;100916.31;5044424;28;20029;-67
2022/11/03 04:41:16;;;;;;;18.80;3.65;;;;;;;11.15;100.00;100929.59;5042424;28;20034;-71
2022/11/03 04:43:44;;;;;;;19.20;4.10;;;;;;;11.17;100.00;100937.53;5045293;28;20041;-71
2022/11/03 04:46:15;;;;;;;20.25;3.80;;;;;;;11.21;100.00;100928.69;5037949;28;20076;-70
2022/11/03 04:48:41;;;;;;;19.67;3.88;;;;;;;11.26;100.00;100932.25;5038179;28;20484;-67
2022/11/03 04:51:16;;;;;;;18.98;4.38;;;;;;;11.25;100.00;100911.94;5044873;28;20044;-65
2022/11/03 04:53:47;;;;;;;20.80;3.83;;;;;;;11.30;100.00;100926.09;5037848;28;20445;-67
2022/11/03 04:56:16;;;;;;;18.77;3.90;;;;;;;11.27;100.00;100906.66;5038442;28;20061;-65
2022/11/03 04:58:41;;;;;;;20.52;4.05;;;;;;;11.23;100.00;100905.78;5045195;28;20084;-66
2022/11/03 05:01:12;;;;;;;20.13;3.97;;;;;;;11.20;100.00;100907.53;5041345;28;20481;-66
2022/11/03 05:03:39;;;;;;;18.17;3.80;;;;;;;11.16;100.00;100902.22;5037173;28;20045;-66
2022/11/03 05:06:14;;;;;;;18.52;3.90;;;;;;;11.13;100.00;100901.34;5044460;28;20494;-67
2022/11/03 05:08:41;;;;;;;18.65;3.97;;;;;;;11.15;100.00;100894.28;5037396;28;20060;-67
2022/11/03 05:11:23;;;;;;;19.23;4.05;;;;;;;11.14;100.00;100901.34;5044524;28;20031;-67
2022/11/03 05:13:50;;;;;;;20.25;3.95;;;;;;;11.21;100.00;100890.78;5039689;28;20037;-66
2022/11/03 05:16:16;;;;;;;20.25;3.97;;;;;;;11.15;100.00;100884.63;5044226;28;20028;-66
2022/11/03 05:18:45;;;;;;;17.73;4.00;;;;;;;11.08;100.00;100885.47;5039814;28;20037;-66
2022/11/03 05:21:18;;;;;;;19.50;4.05;;;;;;;11.12;100.00;100881.94;5037329;28;20032;-66
2022/11/03 05:23:49;;;;;;;19.17;4.05;;;;;;;11.16;100.00;100873.13;5038232;28;20056;-66
2022/11/03 05:26:21;;;;;;;18.13;4.03;;;;;;;11.19;100.00;100880.19;5044176;28;20032;-67
2022/11/03 05:28:54;;;;;;;19.98;3.70;;;;;;;11.16;100.00;100873.13;5041616;28;20072;-66
2022/11/03 05:31:26;;;;;;;20.27;3.97;;;;;;;11.19;100.00;100866.09;5042951;28;20024;-70
2022/11/03 05:33:54;;;;;;;19.33;4.05;;;;;;;11.25;100.00;100866.09;5042307;28;20034;-70
2022/11/03 05:36:23;;;;;;;19.67;3.95;;;;;;;11.30;100.00;100859.03;5043593;28;20079;-70
2022/11/03 05:38:49;;;;;;;19.75;4.10;;;;;;;11.26;100.00;100858.16;5041663;28;20473;-71
2022/11/03 05:41:21;;;;;;;19.23;4.00;;;;;;;11.24;100.00;100856.38;5044338;28;20033;-71
2022/11/03 05:43:58;;;;;;;19.90;4.43;;;;;;;11.30;100.00;100856.38;5041521;28;20091;-71
2022/11/03 05:46:30;;;;;;;20.88;3.92;;;;;;;11.26;100.00;100844.94;5042919;28;20059;-71
2022/11/03 05:48:59;;;;;;;20.45;4.47;;;;;;;11.18;100.00;100836.09;5042491;28;20447;-71
2022/11/03 05:51:31;;;;;;;20.42;4.20;;;;;;;11.21;100.00;100837.84;5042564;28;20468;-71
2022/11/03 05:54:00;;;;;;;20.02;4.05;;;;;;;11.25;100.00;100832.56;5042775;28;20042;-70
2022/11/03 05:56:26;;;;;;;18.67;3.97;;;;;;;11.37;100.00;100839.63;5042456;28;20484;-71
2022/11/03 05:58:55;;;;;;;18.30;3.90;;;;;;;11.37;100.00;100828.19;5041717;28;20033;-70
2022/11/03 06:01:25;;;;;;;19.45;4.10;;;;;;;11.33;100.00;100822.00;5043361;28;20053;-71
2022/11/03 06:03:50;;;;;;;18.88;4.25;;;;;;;11.30;100.00;100821.97;5041648;28;20050;-71
2022/11/03 06:06:24;;;;;;;20.73;3.88;;;;;;;11.32;100.00;100825.53;5043659;28;20040;-70
2022/11/03 06:08:50;;;;;;;19.45;3.80;;;;;;;11.32;100.00;100815.81;5041409;28;20096;-71
2022/11/03 06:11:36;;;;;;;21.48;4.30;;;;;;;11.28;100.00;100815.81;5043633;28;20028;-71
2022/11/03 06:14:21;;;;;;;20.58;4.10;;;;;;;11.23;100.00;100810.53;5043035;28;20124;-70
2022/11/03 06:17:09;;;;;;;20.58;3.97;;;;;;;11.22;100.00;100808.75;5038261;28;20021;-71
2022/11/03 06:19:40;;;;;;;19.40;4.45;;;;;;;11.24;100.00;100804.38;5041155;28;20105;-67
2022/11/03 06:22:23;;;;;;;20.37;3.83;;;;;;;11.27;100.00;100804.38;5040652;28;20075;-76
2022/11/03 06:24:49;;;;;;;20.60;3.97;;;;;;;11.21;100.00;100806.97;5040769;28;20060;-71
2022/11/03 06:27:21;;;;;;;20.95;3.90;;;;;;;11.18;100.00;100796.41;5044935;28;20025;-69
2022/11/03 06:29:51;;;;;;;20.70;3.97;;;;;;;11.16;100.00;100787.59;5044138;28;20507;-70
2022/11/03 06:32:16;;;;;;;21.00;4.15;;;;;;;11.17;100.00;100799.94;5044526;28;20049;-80
2022/11/03 06:34:49;;;;;;;19.60;3.80;;;;;;;11.16;100.00;100796.41;5043509;28;20071;-70
2022/11/03 06:37:19;;;;;;;20.98;3.97;;;;;;;11.19;100.00;100802.59;5044183;28;20025;-69
2022/11/03 06:39:45;;;;;;;20.60;4.30;;;;;;;11.23;100.00;100792.00;5046333;28;20029;-69
2022/11/03 06:42:13;;;;;;;19.02;4.10;;;;;;;11.30;100.00;100795.53;5042139;28;20025;-70
2022/11/03 06:44:40;;;;;;;19.90;4.10;;;;;;;11.27;100.00;100784.94;5048230;28;20036;-71
2022/11/03 06:47:18;;;;;;;19.10;3.80;;;;;;;11.24;100.00;100784.94;5048020;28;20029;-63
2022/11/03 06:49:44;;;;;;;20.08;3.80;;;;;;;11.24;100.00;100784.94;5047678;28;20055;-63
2022/11/03 06:52:27;;;;;;;21.80;4.20;;;;;;;11.23;100.00;100780.56;5047746;28;20021;-63
2022/11/03 06:54:58;;;;;;;19.98;3.97;;;;;;;11.22;100.00;100779.66;5047081;28;20037;-62
2022/11/03 06:57:23;;;;;;;22.20;4.30;;;;;;;11.22;100.00;100770.84;5047682;28;20357;-63
2022/11/03 06:59:51;;;;;;;17.02;3.67;;;;;;;11.16;100.00;100780.53;5046577;28;20025;-63
2022/11/03 07:02:45;;;;;;;19.85;4.10;;;;;;;11.21;100.00;100779.66;5047944;28;20686;-63
2022/11/03 07:05:21;;;;;;;19.63;3.90;;;;;;;11.23;100.00;100785.84;5038347;28;20463;-60
2022/11/03 07:07:46;;;;;;;20.02;4.10;;;;;;;11.24;100.00;100774.34;5044628;28;20031;-62
2022/11/03 07:10:11;;;;;;;20.85;4.25;;;;;;;11.26;100.00;100764.69;5045269;28;20036;-62
2022/11/03 07:12:37;;;;;;;19.75;4.13;;;;;;;11.30;100.00;100766.41;5048682;28;20024;-61
2022/11/03 07:15:10;;;;;;;18.52;3.58;;;;;;;11.32;100.00;100762.03;5042816;28;20472;-62
2022/11/03 07:17:36;;;;;;;20.20;4.00;;;;;;;11.33;100.00;100758.50;5047000;28;20040;-61
2022/11/03 07:20:01;;;;;;;20.17;3.83;;;;;;;11.36;100.00;100769.09;5047649;28;20025;-62
2022/11/03 07:22:27;;;;;;;20.45;3.90;;;;;;;11.39;100.00;100760.22;5042053;28;20116;-61
2022/11/03 07:24:56;;;;;;;20.88;4.03;;;;;;;11.41;100.00;100762.00;5047170;28;20074;-62
2022/11/03 07:27:33;;;;;;;17.20;3.80;;;;;;;11.48;100.00;100762.91;5044892;28;20033;-67
2022/11/03 07:30:16;;;;;;;18.95;4.20;;;;;;;11.49;100.00;100754.09;5045710;28;20030;-68
2022/11/03 07:32:42;;;;;;;18.48;3.95;;;;;;;11.49;100.00;100746.13;5043994;28;20039;-69
2022/11/03 07:35:16;;;;;;;19.60;4.25;;;;;;;11.49;100.00;100749.66;5046560;28;20388;-68
2022/11/03 07:37:43;;;;;;;20.77;3.90;;;;;;;11.51;100.00;100742.59;5041602;28;20064;-66
2022/11/03 07:40:17;;;;;;;19.55;4.10;;;;;;;11.53;100.00;100739.94;5048272;28;20434;-68
2022/11/03 07:42:43;;;;;;;20.65;3.92;;;;;;;11.56;100.00;100739.06;5048323;28;20028;-68
2022/11/03 07:45:40;;;;;;;19.85;4.00;;;;;;;11.59;100.00;100741.69;5048918;28;20071;-68
2022/11/03 07:48:18;;;;;;;21.35;3.90;;;;;;;11.59;100.00;100745.25;5041388;28;20083;-68
2022/11/03 07:50:43;;;;;;;20.27;3.80;;;;;;;11.62;100.00;100744.34;5046238;28;20029;-68
2022/11/03 07:53:15;;;;;;;19.67;3.83;;;;;;;11.65;100.00;100745.22;5043083;28;20033;-66
2022/11/03 07:55:44;;;;;;;17.75;3.90;;;;;;;11.66;100.00;100752.28;5045986;28;20032;-68
2022/11/03 07:58:22;;;;;;;19.10;3.83;;;;;;;11.72;100.00;100751.38;5042127;28;20064;-68
2022/11/03 08:00:49;;;;;;;16.88;3.50;;;;;;;11.82;100.00;100742.56;5041065;28;20064;-61
2022/11/03 08:03:51;;;;;;;16.48;3.50;;;;;;;11.85;100.00;100742.53;5050115;28;20059;-61
2022/11/03 08:06:16;;;;;;;19.35;3.80;;;;;;;11.86;100.00;100744.28;5012820;28;20787;-60
2022/11/03 08:08:42;;;;;;;19.33;3.90;;;;;;;11.90;100.00;100739.88;5016966;28;20105;-62
2022/11/03 08:11:07;;;;;;;19.48;4.00;;;;;;;11.89;100.00;100735.47;5019529;28;20046;-62
2022/11/03 08:13:33;;;;;;;18.33;3.88;;;;;;;11.89;100.00;100724.88;5019746;28;20032;-61
2022/11/03 08:15:58;;;;;;;20.63;3.80;;;;;;;11.93;100.00;100728.41;5020296;28;20494;-62
2022/11/03 08:18:24;;;;;;;21.05;3.80;;;;;;;11.96;100.00;100717.81;5020449;28;20107;-62
2022/11/03 08:20:49;;;;;;;20.80;3.97;;;;;;;11.97;100.00;100709.88;5021064;28;20033;-61
2022/11/03 08:23:15;;;;;;;19.58;3.90;;;;;;;12.01;100.00;100705.44;5021417;28;20037;-61
2022/11/03 08:25:41;;;;;;;18.10;3.67;;;;;;;12.03;100.00;100698.38;5019355;28;20037;-60
2022/11/03 08:28:06;;;;;;;21.17;4.13;;;;;;;12.04;100.00;100684.22;5019575;28;20112;-66
2022/11/03 08:30:32;;;;;;;18.67;3.95;;;;;;;12.12;100.00;100684.19;5020768;28;20037;-68
2022/11/03 08:32:58;;;;;;;19.45;4.05;;;;;;;12.12;100.00;100671.81;5016383;28;20033;-68
2022/11/03 08:35:23;;;;;;;18.15;3.78;;;;;;;12.17;100.00;100669.16;5007206;28;20083;-74
2022/11/03 08:37:49;;;;;;;17.88;3.70;;;;;;;12.18;100.00;100658.53;5019468;28;20495;-67
2022/11/03 08:40:14;;;;;;;18.95;3.83;;;;;;;12.21;100.00;100658.53;5018912;28;20037;-72
2022/11/03 08:42:39;;;;;;;17.08;3.78;;;;;;;12.29;100.00;100641.69;5024984;28;20044;-71
2022/11/03 08:45:05;;;;;;;18.83;3.70;;;;;;;12.31;100.00;100639.94;5046295;28;20419;-72
2022/11/03 08:47:30;;;;;;;20.00;3.70;;;;;;;12.36;100.00;100625.75;5045789;28;20025;-69
2022/11/03 08:49:56;;;;;;;19.92;3.78;;;;;;;12.45;100.00;100610.66;5046406;28;20052;-71
2022/11/03 08:52:21;;;;;;;19.50;3.60;;;;;;;12.51;100.00;100619.47;5046877;28;20032;-71
2022/11/03 08:54:46;;;;;;;17.73;3.75;;;;;;;12.59;100.00;100610.59;5043287;28;20024;-71
2022/11/03 08:57:12;;;;;;;16.92;3.47;;;;;;;12.70;100.00;100612.25;5049287;28;20033;-71
2022/11/03 08:59:37;;;;;;;18.45;3.67;;;;;;;12.77;100.00;100606.88;5048049;28;20025;-70
2022/11/03 09:02:03;;;;;;;20.42;3.53;;;;;;;12.85;100.00;100600.63;5046022;28;20387;-72
2022/11/03 09:04:29;;;;;;;17.98;3.30;;;;;;;12.94;100.00;100594.34;5043589;28;20041;-70
2022/11/03 09:06:54;;;;;;;15.23;3.20;;;;;;;13.02;100.00;100581.91;5039674;28;20039;-72
2022/11/03 09:09:20;;;;;;;17.88;3.35;;;;;;;13.06;100.00;100569.47;5042114;28;20029;-72
2022/11/03 09:11:46;;;;;;;17.83;3.50;;;;;;;13.16;100.00;100572.91;5043628;28;20026;-72
2022/11/03 09:14:11;;;;;;;16.42;3.40;;;;;;;13.22;100.00;100570.19;5041716;28;20027;-72
2022/11/03 09:16:36;;;;;;;16.25;3.50;;;;;;;13.23;100.00;100566.66;5041953;28;20381;-70
2022/11/03 09:19:02;;;;;;;19.48;3.70;;;;;;;13.27;100.00;100552.44;5044586;28;20044;-72
2022/11/03 09:21:27;;;;;;;16.85;3.40;;;;;;;13.29;100.00;100542.69;5041202;28;20079;-71
2022/11/03 09:23:52;;;;;;;19.08;3.42;;;;;;;13.29;100.00;100524.09;5043912;28;20119;-68
2022/11/03 09:26:18;;;;;;;19.10;3.63;;;;;;;13.32;100.00;100526.72;5042215;28;20059;-72
2022/11/03 09:28:43;;;;;;;17.45;3.50;;;;;;;13.33;100.00;100511.69;5042607;28;20034;-72
2022/11/03 09:31:08;;;;;;;16.23;3.38;;;;;;;13.34;100.00;100500.16;5043446;28;20028;-71
2022/11/03 09:33:33;;;;;;;15.18;3.33;;;;;;;13.36;100.00;100496.63;5041231;28;20032;-72
2022/11/03 09:36:00;;;;;;;15.98;3.17;;;;;;;13.35;100.00;100499.28;5044441;28;20024;-71
2022/11/03 09:38:26;;;;;;;19.02;3.92;;;;;;;13.37;100.00;100493.06;5041000;28;20473;-72
2022/11/03 09:40:51;;;;;;;16.63;3.30;;;;;;;13.35;100.00;100491.34;5042440;28;20044;-66
2022/11/03 09:43:17;;;;;;;18.08;3.53;;;;;;;13.34;100.00;100487.81;5043894;28;20036;-59
2022/11/03 09:45:42;;;;;;;15.18;3.30;;;;;;;13.35;100.00;100486.03;5045696;28;20504;-60
2022/11/03 09:48:12;;;;;;;16.65;3.22;;;;;;;13.32;100.00;100481.59;5047239;28;20067;-60
2022/11/03 09:50:38;;;;;;;15.02;3.00;;;;;;;13.30;100.00;100474.56;5040327;28;20559;-60
2022/11/03 09:53:04;;;;;;;14.38;3.17;;;;;;;13.28;100.00;100471.03;5046191;28;20093;-60
2022/11/03 09:55:32;;;;;;;18.20;3.35;;;;;;;13.25;100.00;100462.22;5045549;28;20045;-60
2022/11/03 09:58:10;;;;;;;15.45;3.20;;;;;;;13.24;100.00;100464.91;5043413;28;20488;-60
2022/11/03 10:00:36;;;;;;;17.35;3.28;;;;;;;13.22;100.00;100454.31;5039078;28;20025;-61
2022/11/03 10:03:03;;;;;;;18.52;3.53;;;;;;;13.22;100.00;100454.31;5042553;28;20060;-60
2022/11/03 10:05:29;;;;;;;15.07;3.28;;;;;;;13.20;100.00;100448.13;5044052;28;20029;-59
2022/11/03 10:08:01;;;;;;;18.20;3.67;;;;;;;13.25;100.00;100456.03;5043951;28;20361;-59
2022/11/03 10:10:27;;;;;;;15.15;3.25;;;;;;;13.21;100.00;100444.59;5045277;28;20071;-60
2022/11/03 10:12:54;;;;;;;19.42;3.50;;;;;;;13.19;100.00;100435.78;5043330;28;20048;-60
2022/11/03 10:15:22;;;;;;;15.70;3.33;;;;;;;13.17;100.00;100432.25;5046773;28;20099;-60
2022/11/03 10:17:49;;;;;;;17.88;3.40;;;;;;;13.17;100.00;100434.03;5040077;28;20022;-60
2022/11/03 10:20:17;;;;;;;17.70;3.28;;;;;;;13.15;100.00;100427.84;5047488;28;20480;-60
2022/11/03 10:22:44;;;;;;;16.88;3.42;;;;;;;13.18;100.00;100419.88;5047264;28;20025;-60
2022/11/03 10:25:33;;;;;;;17.55;3.33;;;;;;;13.18;100.00;100420.75;5046102;28;20112;-59
2022/11/03 10:28:14;;;;;;;15.50;3.28;;;;;;;13.19;100.00;100414.53;5047455;28;20431;-60
2022/11/03 10:31:05;;;;;;;18.17;3.35;;;;;;;13.25;100.00;100409.16;5045916;28;20029;-60
2022/11/03 10:33:33;;;;;;;20.00;3.47;;;;;;;13.32;100.00;100406.41;5049238;28;20029;-59
2022/11/03 10:36:05;;;;;;;17.02;3.33;;;;;;;13.43;100.00;100401.84;5048810;28;20032;-62
2022/11/03 10:38:35;;;;;;;14.93;3.20;;;;;;;13.53;100.00;100399.94;5049096;28;20603;-61
2022/11/03 10:41:18;;;;;;;17.55;3.30;;;;;;;13.68;100.00;100399.69;5050483;28;20059;-61
2022/11/03 10:43:58;;;;;;;14.93;3.47;;;;;;;13.82;100.00;100395.94;5046773;28;20053;-61
2022/11/03 10:46:23;;;;;;;16.45;3.40;;;;;;;13.94;100.00;100393.97;5046786;28;20116;-61
2022/11/03 10:49:13;;;;;;;16.15;3.33;;;;;;;14.07;100.00;100391.97;5049707;28;20497;-62
2022/11/03 10:51:40;;;;;;;17.63;3.25;;;;;;;14.16;100.00;100388.28;5045558;28;20116;-64
2022/11/03 10:54:11;;;;;;;16.27;3.45;;;;;;;14.20;100.00;100387.34;5049834;28;20416;-61
2022/11/03 10:56:37;;;;;;;17.10;3.45;;;;;;;14.21;100.00;100380.22;5045626;28;20044;-61
2022/11/03 10:59:02;;;;;;;17.13;3.53;;;;;;;14.28;100.00;100382.75;5048290;28;20179;-61
2022/11/03 11:01:28;;;;;;;13.50;3.00;;;;;;;14.39;100.00;100376.38;5041236;28;20029;-61
2022/11/03 11:03:54;;;;;;;15.77;3.33;;;;;;;14.45;100.00;100363.81;5043068;28;20037;-62
2022/11/03 11:06:25;;;;;;;14.40;3.20;;;;;;;14.53;100.00;100363.66;5048602;28;20029;-63
2022/11/03 11:08:56;;;;;;;14.93;3.00;;;;;;;14.58;100.00;100358.28;5046143;28;20029;-74
2022/11/03 11:11:22;;;;;;;15.80;3.03;;;;;;;14.54;100.00;100356.56;5037087;28;20033;-64
2022/11/03 11:14:37;;;;;;;15.93;3.35;;;;;;;14.50;100.00;100353.09;5037539;28;20044;-63
2022/11/03 11:17:03;;;;;;;15.40;3.22;;;;;;;14.44;100.00;100356.72;5037673;28;20499;-65
2022/11/03 11:19:49;;;;;;;16.63;3.40;;;;;;;14.44;100.00;100350.56;5034869;28;20025;-73
2022/11/03 11:22:21;;;;;;;16.17;3.05;;;;;;;14.52;100.00;100340.66;5039748;28;20358;-68
2022/11/03 11:24:47;;;;;;;14.43;3.30;;;;;;;14.60;100.00;100336.03;5035828;28;20052;-67
2022/11/03 11:27:33;;;;;;;17.15;3.40;;;;;;;14.72;100.00;100336.72;5039717;28;20072;-66
2022/11/03 11:30:06;;;;;;;16.55;3.17;;;;;;;14.66;100.00;100332.41;5041873;28;20029;-66
2022/11/03 11:32:40;;;;;;;15.77;3.15;;;;;;;14.77;100.00;100308.25;5044793;28;20025;-66
2022/11/03 11:35:07;;;;;;;13.43;3.20;;;;;;;14.86;100.00;100308.06;5045633;28;20064;-66
2022/11/03 11:37:34;;;;;;;15.38;3.10;;;;;;;15.07;100.00;100303.16;5044617;28;20037;-65
2022/11/03 11:39:59;;;;;;;16.63;3.35;;;;;;;15.14;100.00;100283.47;5044490;28;20607;-65
2022/11/03 11:42:25;;;;;;;15.75;3.45;;;;;;;15.16;100.00;100271.00;5045475;28;20043;-66